This is the latest recevied weather packets stored in our database for station/object HK6LRQ-22. If no packets are shown the sender has not sent any weather packets the latest 10 day(s).
| Time | Temp. | Humidity | Pressure | Rain* | Wind** | Luminosity | Snow |
|---|---|---|---|---|---|---|---|
| 1787428051 | 22.78° C | 78% | 1011 hPa | 0 mm | - | - | - |
| 1787426250 | 23.33° C | 78% | 1012 hPa | 0 mm | - | - | - |
| 1787424449 | 23.89° C | 76% | 1011 hPa | 0 mm | - | - | - |
| 1787422648 | 23.89° C | 77% | 1012 hPa | 0 mm | - | - | - |
| 1787420847 | 23.33° C | 79% | 1012 hPa | 0 mm | - | - | - |
| 1787419046 | 23.33° C | 80% | 1014 hPa | 0 mm | - | - | - |
| 1787417245 | 23.33° C | 81% | 1013 hPa | 0 mm | - | - | - |
| 1787415444 | 22.78° C | 85% | 1015 hPa | 0 mm | - | - | - |
| 1787413643 | 22.22° C | 87% | 1014 hPa | 0 mm | - | - | - |
| 1787411842 | 22.78° C | 87% | 1015 hPa | 0 mm | - | - | - |
| 1787410041 | 22.78° C | 88% | 1015 hPa | 0 mm | - | - | - |
| 1787408240 | 23.33° C | 88% | 1015 hPa | 0 mm | - | - | - |
| 1787406439 | 20° C | 93% | 1015 hPa | 0 mm | - | - | - |
| 1787404637 | 17.78° C | 86% | 1015 hPa | 0 mm | - | - | - |
| 1787402836 | 18.33° C | 86% | 1015 hPa | 0 mm | - | - | - |
| 1787401035 | 18.89° C | 86% | 1016 hPa | 0 mm | - | - | - |
| 1787399234 | 15° C | 64% | 1016 hPa | 0 mm | - | - | - |
| 1787397433 | 15.56° C | 63% | 1016 hPa | 0 mm | - | - | - |
| 1787395632 | 15.56° C | 63% | 1015 hPa | 0 mm | - | - | - |
| 1787393831 | 15.56° C | 63% | 1015 hPa | 0 mm | - | - | - |
| 1787392030 | 15.56° C | 62% | 1015 hPa | 0 mm | - | - | - |
| 1787390229 | 15.56° C | 62% | 1015 hPa | 0 mm | - | - | - |
| 1787388428 | 16.11° C | 62% | 1014 hPa | 0 mm | - | - | - |
| 1787386627 | 16.11° C | 62% | 1015 hPa | 0 mm | - | - | - |
| 1787384826 | 16.67° C | 62% | 1014 hPa | 0 mm | - | - | - |
* Rain latest hour (hover to see other rain measurements)
** Current wind speed in m/s (hover to see current wind gust speed)